createdAt,value
2023-02-03T00:01:47.292Z,88.26
2023-02-03T00:04:16.120Z,88.27
2023-02-03T00:06:44.462Z,88.27
2023-02-03T00:09:13.859Z,88.48
2023-02-03T00:11:41.754Z,88.50
2023-02-03T00:14:09.679Z,88.42
2023-02-03T00:16:37.569Z,88.39
2023-02-03T00:19:05.575Z,88.38
2023-02-03T00:21:33.435Z,88.42
2023-02-03T00:24:01.392Z,88.47
2023-02-03T00:26:30.732Z,88.39
2023-02-03T00:29:00.814Z,88.33
2023-02-03T00:31:28.910Z,88.32
2023-02-03T00:33:58.339Z,88.46
2023-02-03T00:36:27.235Z,88.39
2023-02-03T00:38:55.695Z,88.49
2023-02-03T00:41:23.583Z,88.65
2023-02-03T00:43:52.773Z,88.55
2023-02-03T00:46:20.926Z,88.45
2023-02-03T00:48:49.304Z,88.72
2023-02-03T00:51:17.123Z,88.62
2023-02-03T00:53:45.073Z,88.47
2023-02-03T00:56:13.518Z,88.65
2023-02-03T00:58:41.583Z,88.49
2023-02-03T01:01:11.625Z,88.73
2023-02-03T01:03:40.327Z,88.70
2023-02-03T01:06:13.875Z,88.80
2023-02-03T01:08:42.060Z,88.81
2023-02-03T01:11:11.088Z,88.75
2023-02-03T01:13:39.591Z,88.85
2023-02-03T01:16:11.054Z,88.74
2023-02-03T01:18:39.840Z,88.92
2023-02-03T01:21:09.454Z,88.96
2023-02-03T01:23:37.851Z,88.88
2023-02-03T01:26:07.242Z,88.69
2023-02-03T01:28:35.267Z,88.79
2023-02-03T01:31:12.711Z,88.73
2023-02-03T01:33:41.242Z,88.80
2023-02-03T01:36:10.369Z,88.95
2023-02-03T01:38:39.222Z,89.04
2023-02-03T01:41:11.129Z,89.29
2023-02-03T01:43:41.515Z,89.29
2023-02-03T01:46:23.994Z,89.38
2023-02-03T01:48:53.040Z,89.50
2023-02-03T01:51:22.164Z,89.21
2023-02-03T01:53:52.540Z,89.14
2023-02-03T01:56:21.322Z,89.11
2023-02-03T01:58:50.809Z,89.14
2023-02-03T02:01:20.201Z,89.04
2023-02-03T02:03:53.944Z,89.26
2023-02-03T02:06:22.054Z,89.36
2023-02-03T02:08:53.022Z,89.09
2023-02-03T02:11:22.666Z,89.44
2023-02-03T02:13:53.162Z,89.48
2023-02-03T02:16:31.116Z,89.23
2023-02-03T02:19:18.009Z,89.29
2023-02-03T02:21:57.575Z,89.19
2023-02-03T02:25:04.658Z,89.23
2023-02-03T02:28:13.158Z,89.32
2023-02-03T02:30:57.358Z,89.17
2023-02-03T02:33:37.863Z,89.27
2023-02-03T02:36:17.230Z,89.16
2023-02-03T02:38:51.343Z,89.03
2023-02-03T02:41:21.635Z,88.98
2023-02-03T02:43:59.246Z,89.29
2023-02-03T02:46:35.269Z,89.31
2023-02-03T02:49:10.923Z,89.32
2023-02-03T02:51:43.880Z,89.51
2023-02-03T02:54:17.119Z,89.39
2023-02-03T02:56:49.583Z,89.51
2023-02-03T02:59:17.735Z,89.38
2023-02-03T03:01:45.615Z,89.57
2023-02-03T03:04:18.754Z,89.61
2023-02-03T03:06:50.891Z,89.81
2023-02-03T03:09:23.507Z,89.42
2023-02-03T03:11:56.233Z,89.49
2023-02-03T03:14:27.983Z,89.50
2023-02-03T03:17:00.913Z,89.67
2023-02-03T03:19:36.005Z,89.71
2023-02-03T03:22:05.955Z,89.91
2023-02-03T03:24:41.560Z,89.40
2023-02-03T03:27:13.582Z,89.50
2023-02-03T03:29:45.186Z,89.64
2023-02-03T03:32:13.215Z,89.73
2023-02-03T03:34:43.294Z,89.63
2023-02-03T03:37:16.478Z,89.83
2023-02-03T03:39:48.402Z,89.98
2023-02-03T03:42:22.056Z,89.83
2023-02-03T03:44:58.467Z,89.82
2023-02-03T03:47:32.767Z,89.81
2023-02-03T03:50:05.288Z,89.91
2023-02-03T03:52:37.241Z,89.97
2023-02-03T03:55:09.430Z,89.98
2023-02-03T03:57:41.283Z,90.22
2023-02-03T04:00:12.470Z,90.04
2023-02-03T04:02:42.113Z,90.25
2023-02-03T04:05:13.275Z,90.06
2023-02-03T04:07:44.199Z,90.05
2023-02-03T04:10:19.313Z,89.93
2023-02-03T04:12:47.209Z,90.29
2023-02-03T04:15:15.347Z,90.20
2023-02-03T04:17:43.410Z,90.13
2023-02-03T04:20:14.140Z,90.42
2023-02-03T04:22:42.243Z,90.21
2023-02-03T04:25:10.566Z,90.19
2023-02-03T04:27:38.629Z,90.11
2023-02-03T04:30:07.786Z,90.18
2023-02-03T04:32:35.982Z,90.16
2023-02-03T04:35:05.346Z,90.36
2023-02-03T04:37:34.727Z,90.17
2023-02-03T04:40:02.648Z,89.94
2023-02-03T04:42:30.481Z,90.36
2023-02-03T04:44:58.425Z,90.21
2023-02-03T04:47:26.516Z,90.46
2023-02-03T04:49:54.347Z,90.26
2023-02-03T04:52:22.241Z,90.35
2023-02-03T04:54:51.499Z,90.25
2023-02-03T04:57:19.403Z,90.24
2023-02-03T04:59:47.316Z,90.38
2023-02-03T05:02:15.403Z,90.21
2023-02-03T05:04:43.347Z,90.82
2023-02-03T05:07:11.342Z,90.53
2023-02-03T05:09:39.311Z,90.50
2023-02-03T05:12:08.905Z,90.72
2023-02-03T05:14:36.816Z,90.98
2023-02-03T05:17:04.788Z,90.99
2023-02-03T05:19:32.670Z,90.72
2023-02-03T05:22:00.595Z,90.98
2023-02-03T05:24:28.680Z,91.17
2023-02-03T05:26:56.690Z,91.21
2023-02-03T05:29:25.962Z,90.94
2023-02-03T05:31:53.829Z,91.33
2023-02-03T05:34:21.707Z,91.22
2023-02-03T05:36:49.637Z,91.30
2023-02-03T05:39:17.513Z,91.44
2023-02-03T05:41:54.894Z,91.38
2023-02-03T05:44:26.975Z,91.44
2023-02-03T05:46:56.694Z,91.50
2023-02-03T05:49:24.973Z,91.58
2023-02-03T05:51:54.235Z,91.65
2023-02-03T05:54:22.558Z,91.59
2023-02-03T05:56:50.567Z,91.61
2023-02-03T05:59:18.495Z,91.43
2023-02-03T06:01:47.677Z,91.82
2023-02-03T06:04:15.626Z,91.74
2023-02-03T06:06:43.623Z,91.73
2023-02-03T06:09:11.495Z,91.95
2023-02-03T06:11:39.433Z,91.91
2023-02-03T06:14:07.572Z,92.12
2023-02-03T06:16:35.434Z,91.74
2023-02-03T06:19:05.061Z,91.55
2023-02-03T06:21:33.005Z,91.75
2023-02-03T06:24:00.890Z,91.86
2023-02-03T06:26:28.792Z,91.81
2023-02-03T06:28:56.706Z,91.88
2023-02-03T06:31:24.866Z,91.79
2023-02-03T06:33:52.935Z,91.73
2023-02-03T06:36:22.581Z,91.93
2023-02-03T06:38:50.523Z,92.03
2023-02-03T06:41:18.507Z,91.88
2023-02-03T06:43:46.403Z,92.05
2023-02-03T06:46:14.326Z,91.80
2023-02-03T06:48:42.283Z,92.16
2023-02-03T06:51:10.214Z,91.96
2023-02-03T06:53:39.471Z,92.19
2023-02-03T06:56:07.568Z,92.18
2023-02-03T06:58:35.591Z,92.10
2023-02-03T07:01:03.758Z,92.08
2023-02-03T07:03:31.651Z,92.07
2023-02-03T07:05:59.701Z,92.25
2023-02-03T07:08:27.694Z,91.98
2023-02-03T07:10:56.976Z,92.38
2023-02-03T07:13:24.918Z,92.24
2023-02-03T07:15:53.153Z,92.48
2023-02-03T07:18:45.936Z,92.55
2023-02-03T07:21:12.812Z,92.38
2023-02-03T07:23:40.951Z,92.35
2023-02-03T07:26:12.114Z,92.87
2023-02-03T07:28:40.138Z,93.04
2023-02-03T07:31:08.314Z,93.26
2023-02-03T07:33:36.222Z,93.34
2023-02-03T07:36:04.766Z,93.38
2023-02-03T07:38:32.926Z,93.51
2023-02-03T07:41:00.788Z,93.65
2023-02-03T07:43:30.251Z,93.81
2023-02-03T07:45:58.130Z,93.80
2023-02-03T07:48:25.988Z,94.18
2023-02-03T07:50:54.194Z,94.26
2023-02-03T07:53:22.035Z,94.47
2023-02-03T07:55:49.893Z,94.61
2023-02-03T07:58:17.949Z,94.96
2023-02-03T08:00:47.137Z,94.71
2023-02-03T08:03:14.980Z,95.00
2023-02-03T08:05:43.144Z,95.08
2023-02-03T08:08:10.988Z,95.20
2023-02-03T08:10:39.004Z,94.78
2023-02-03T08:13:07.044Z,95.00
2023-02-03T08:15:34.927Z,95.18
2023-02-03T08:18:04.603Z,95.54
2023-02-03T08:20:32.599Z,96.07
2023-02-03T08:23:00.534Z,95.99
2023-02-03T08:25:28.361Z,96.44
2023-02-03T08:27:56.481Z,97.10
2023-02-03T08:30:24.971Z,97.85
2023-02-03T08:32:52.834Z,98.94
2023-02-03T08:35:22.418Z,100.00
2023-02-03T08:37:50.525Z,100.00
2023-02-03T08:40:18.891Z,100.00
2023-02-03T08:42:46.981Z,100.00
2023-02-03T08:45:14.842Z,100.00
2023-02-03T08:47:42.710Z,100.00
2023-02-03T08:50:11.718Z,100.00
2023-02-03T08:52:41.500Z,100.00
2023-02-03T08:55:09.733Z,100.00
2023-02-03T08:57:38.199Z,100.00
2023-02-03T09:00:07.389Z,99.56
2023-02-03T09:02:35.302Z,98.95
2023-02-03T09:05:03.393Z,99.10
2023-02-03T09:07:31.272Z,97.97
2023-02-03T09:10:00.444Z,96.86
2023-02-03T09:12:28.450Z,96.36
2023-02-03T09:14:56.258Z,94.92
2023-02-03T09:17:24.070Z,94.24
2023-02-03T09:19:52.095Z,94.25
2023-02-03T09:22:19.988Z,94.00
2023-02-03T09:24:50.582Z,91.80
2023-02-03T09:27:20.054Z,90.23
2023-02-03T09:29:47.870Z,90.00
2023-02-03T09:32:15.942Z,88.36
2023-02-03T09:34:44.084Z,86.51
2023-02-03T09:37:11.936Z,85.74
2023-02-03T09:39:39.752Z,84.58
2023-02-03T09:42:29.827Z,82.32
2023-02-03T09:45:09.773Z,82.05
2023-02-03T09:47:40.790Z,81.60
2023-02-03T09:50:15.377Z,80.51
2023-02-03T09:52:44.959Z,80.15
2023-02-03T09:55:23.946Z,78.86
2023-02-03T09:57:57.182Z,78.83
2023-02-03T10:00:29.467Z,78.22
2023-02-03T10:03:04.013Z,76.90
2023-02-03T10:05:48.084Z,76.15
2023-02-03T10:08:28.262Z,75.47
2023-02-03T10:11:10.648Z,75.25
2023-02-03T10:13:53.123Z,74.58
2023-02-03T10:16:39.787Z,73.17
2023-02-03T10:19:12.571Z,73.39
2023-02-03T10:21:44.808Z,72.89
2023-02-03T10:24:17.415Z,72.27
2023-02-03T10:26:45.302Z,72.20
2023-02-03T10:29:21.587Z,70.51
2023-02-03T10:31:49.888Z,70.37
2023-02-03T10:34:19.881Z,69.82
2023-02-03T10:36:56.692Z,68.59
2023-02-03T10:39:33.580Z,68.72
2023-02-03T10:42:03.961Z,69.70
2023-02-03T10:44:39.986Z,69.30
2023-02-03T10:47:24.814Z,68.83
2023-02-03T10:49:54.358Z,69.04
2023-02-03T10:52:30.819Z,68.15
2023-02-03T10:55:00.444Z,68.15
2023-02-03T10:57:31.061Z,68.08
2023-02-03T11:00:22.446Z,68.05
2023-02-03T11:02:57.579Z,68.61
2023-02-03T11:05:26.577Z,69.12
2023-02-03T11:07:55.191Z,68.25
2023-02-03T11:10:35.606Z,69.31
2023-02-03T11:13:22.484Z,69.11
2023-02-03T11:15:56.994Z,69.56
2023-02-03T11:18:39.486Z,70.22
2023-02-03T11:21:10.297Z,70.13
2023-02-03T11:23:39.244Z,71.45
2023-02-03T11:26:16.263Z,71.83
2023-02-03T11:28:47.729Z,72.48
2023-02-03T11:31:24.028Z,72.42
2023-02-03T11:33:56.236Z,72.06
2023-02-03T11:36:27.527Z,71.69
2023-02-03T11:39:10.992Z,71.78
2023-02-03T11:41:39.898Z,71.74
2023-02-03T11:44:18.871Z,72.73
2023-02-03T11:46:51.508Z,72.47
2023-02-03T11:49:52.893Z,72.75
2023-02-03T11:52:41.851Z,72.34
2023-02-03T11:55:20.997Z,72.72
2023-02-03T11:58:01.915Z,72.74
2023-02-03T12:00:38.900Z,72.55
2023-02-03T12:03:34.604Z,72.70
2023-02-03T12:06:29.700Z,72.78
2023-02-03T12:09:13.703Z,72.39
2023-02-03T12:12:04.999Z,72.89
2023-02-03T12:14:48.723Z,72.61
2023-02-03T12:17:39.587Z,72.93
2023-02-03T12:20:24.470Z,72.96
2023-02-03T12:23:01.554Z,72.68
2023-02-03T12:25:38.399Z,73.13
2023-02-03T12:28:32.468Z,72.61
2023-02-03T12:31:06.303Z,72.97
2023-02-03T12:33:40.687Z,72.60
2023-02-03T12:36:16.687Z,73.35
2023-02-03T12:38:52.116Z,72.89
2023-02-03T12:41:24.073Z,73.51
2023-02-03T12:43:56.261Z,73.09
2023-02-03T12:46:29.232Z,73.72
2023-02-03T12:49:02.992Z,73.83
2023-02-03T12:51:40.408Z,73.71
2023-02-03T12:54:23.648Z,74.51
2023-02-03T12:56:55.173Z,74.49
2023-02-03T12:59:26.642Z,74.39
2023-02-03T13:02:00.102Z,74.65
2023-02-03T13:04:35.892Z,74.57
2023-02-03T13:07:14.002Z,74.72
2023-02-03T13:09:50.843Z,74.72
2023-02-03T13:12:30.898Z,74.34
2023-02-03T13:15:07.482Z,74.18
2023-02-03T13:17:43.327Z,74.81
2023-02-03T13:20:18.689Z,74.53
2023-02-03T13:22:48.464Z,74.57
2023-02-03T13:25:24.171Z,74.66
2023-02-03T13:28:09.158Z,74.37
2023-02-03T13:30:57.969Z,75.11
2023-02-03T13:33:53.440Z,75.13
2023-02-03T13:36:52.149Z,75.17
2023-02-03T13:39:45.127Z,75.10
2023-02-03T13:42:22.696Z,75.23
2023-02-03T13:44:55.283Z,74.92
2023-02-03T13:47:27.397Z,74.96
2023-02-03T13:49:59.987Z,75.29
2023-02-03T13:52:32.689Z,75.29
2023-02-03T13:55:03.630Z,75.45
2023-02-03T13:57:35.624Z,75.46
2023-02-03T14:00:06.528Z,75.23
2023-02-03T14:02:46.660Z,76.00
2023-02-03T14:05:44.390Z,75.88
2023-02-03T14:08:53.043Z,76.07
2023-02-03T14:11:43.456Z,75.75
2023-02-03T14:14:42.733Z,75.96
2023-02-03T14:17:58.762Z,76.22
2023-02-03T14:20:49.250Z,75.92
2023-02-03T14:23:26.655Z,76.14
2023-02-03T14:25:57.869Z,75.97
2023-02-03T14:28:38.230Z,76.53
2023-02-03T14:31:10.829Z,76.46
2023-02-03T14:34:06.993Z,77.20
2023-02-03T14:36:48.045Z,77.09
2023-02-03T14:39:49.030Z,77.23
2023-02-03T14:42:51.978Z,77.34
2023-02-03T14:45:37.092Z,77.22
2023-02-03T14:48:15.398Z,77.18
2023-02-03T14:50:59.873Z,77.52
2023-02-03T14:53:52.998Z,77.77
2023-02-03T14:56:52.563Z,77.91
2023-02-03T14:59:25.677Z,78.00
2023-02-03T15:02:23.239Z,78.64
2023-02-03T15:04:51.440Z,78.28
2023-02-03T15:07:44.827Z,78.73
2023-02-03T15:10:18.199Z,78.92
2023-02-03T15:12:48.395Z,79.24
2023-02-03T15:15:27.440Z,79.71
2023-02-03T15:17:59.592Z,79.66
2023-02-03T15:20:32.969Z,79.92
2023-02-03T15:23:02.247Z,80.02
2023-02-03T15:25:32.975Z,80.20
2023-02-03T15:28:16.991Z,80.68
2023-02-03T15:30:45.623Z,80.55
2023-02-03T15:33:20.499Z,80.87
2023-02-03T15:35:51.407Z,81.01
2023-02-03T15:38:25.719Z,81.30
2023-02-03T15:40:57.842Z,81.73
2023-02-03T15:43:31.444Z,81.96
2023-02-03T15:46:06.445Z,82.26
2023-02-03T15:48:41.951Z,82.19
2023-02-03T15:51:13.455Z,82.26
2023-02-03T15:53:49.193Z,82.17
2023-02-03T15:56:23.605Z,82.08
2023-02-03T15:58:51.889Z,82.15
2023-02-03T16:01:26.097Z,82.38
2023-02-03T16:03:57.183Z,82.24
2023-02-03T16:06:30.475Z,82.74
2023-02-03T16:08:59.818Z,82.58
2023-02-03T16:11:31.741Z,82.72
2023-02-03T16:14:01.802Z,82.91
2023-02-03T16:16:33.796Z,83.03
2023-02-03T16:19:05.265Z,83.20
2023-02-03T16:21:36.239Z,83.53
2023-02-03T16:24:05.514Z,83.17
2023-02-03T16:26:36.726Z,83.37
2023-02-03T16:29:33.147Z,83.40
2023-02-03T16:32:19.438Z,83.66
2023-02-03T16:35:06.247Z,82.91
2023-02-03T16:37:53.756Z,83.06
2023-02-03T16:40:42.415Z,83.20
2023-02-03T16:43:31.627Z,82.87
2023-02-03T16:46:18.687Z,82.70
2023-02-03T16:49:04.954Z,82.99
2023-02-03T16:51:40.336Z,82.79
2023-02-03T16:54:13.059Z,83.14
2023-02-03T16:56:41.114Z,83.11
2023-02-03T16:59:09.393Z,83.47
2023-02-03T17:01:37.553Z,83.29
2023-02-03T17:04:05.796Z,83.52
2023-02-03T17:06:34.717Z,83.30
2023-02-03T17:09:04.117Z,83.55
2023-02-03T17:11:31.981Z,83.27
2023-02-03T17:14:00.075Z,83.31
2023-02-03T17:16:29.005Z,82.78
2023-02-03T17:18:57.224Z,82.82
2023-02-03T17:21:27.586Z,82.97
2023-02-03T17:23:55.621Z,82.64
2023-02-03T17:26:24.856Z,82.65
2023-02-03T17:28:52.845Z,82.62
2023-02-03T17:31:22.112Z,82.45
2023-02-03T17:33:52.216Z,82.49
2023-02-03T17:36:21.733Z,82.31
2023-02-03T17:55:25.487Z,81.03
2023-02-03T17:57:54.759Z,80.74
2023-02-03T18:00:22.646Z,80.21
2023-02-03T18:02:51.873Z,80.31
2023-02-03T18:05:20.283Z,80.06
2023-02-03T18:10:21.089Z,79.48
2023-02-03T18:12:49.175Z,79.33
2023-02-03T18:15:18.441Z,79.16
2023-02-03T18:17:46.676Z,79.07
2023-02-03T18:20:14.894Z,78.94
2023-02-03T18:22:42.746Z,78.58
2023-02-03T18:25:11.831Z,78.45
2023-02-03T18:27:39.640Z,78.00
2023-02-03T18:30:11.248Z,77.98
2023-02-03T18:32:40.579Z,77.69
2023-02-03T18:35:13.028Z,77.70
2023-02-03T18:37:41.043Z,77.41
2023-02-03T18:40:09.442Z,77.27
2023-02-03T18:42:37.250Z,77.03
2023-02-03T18:45:06.494Z,77.20
2023-02-03T18:47:36.177Z,76.96
2023-02-03T18:50:06.851Z,76.91
2023-02-03T18:52:35.060Z,76.83
2023-02-03T18:55:02.880Z,76.99
2023-02-03T18:57:30.932Z,76.99
2023-02-03T18:59:58.739Z,76.80
2023-02-03T19:02:28.139Z,76.75
2023-02-03T19:04:56.212Z,76.57
2023-02-03T19:07:25.655Z,76.80
2023-02-03T19:09:53.655Z,76.97
2023-02-03T19:12:21.581Z,76.97
2023-02-03T19:14:49.446Z,77.01
2023-02-03T19:17:17.615Z,76.87
2023-02-03T19:19:45.816Z,76.98
2023-02-03T19:22:13.954Z,77.00
2023-02-03T19:24:43.142Z,77.08
2023-02-03T19:27:10.995Z,77.01
2023-02-03T19:29:40.088Z,77.06
2023-02-03T19:32:09.846Z,76.98
2023-02-03T19:34:37.867Z,76.95
2023-02-03T19:37:06.302Z,77.55
2023-02-03T19:39:34.255Z,77.66
2023-02-03T19:42:03.895Z,77.91
2023-02-03T19:44:31.689Z,77.91
2023-02-03T19:46:59.729Z,78.08
2023-02-03T19:49:28.760Z,77.85
2023-02-03T19:51:56.599Z,77.84
2023-02-03T19:54:24.549Z,77.92
2023-02-03T19:56:53.747Z,77.87
2023-02-03T19:59:22.976Z,77.96
2023-02-03T20:01:51.040Z,77.95
2023-02-03T20:04:19.196Z,77.92
2023-02-03T20:06:47.063Z,78.02
2023-02-03T20:09:14.902Z,78.16
2023-02-03T20:11:42.847Z,78.39
2023-02-03T20:14:11.216Z,78.36
2023-02-03T20:16:40.471Z,78.31
2023-02-03T20:19:08.460Z,78.07
2023-02-03T20:21:36.281Z,78.14
2023-02-03T20:24:04.321Z,78.11
2023-02-03T20:26:32.270Z,77.77
2023-02-03T20:29:00.061Z,77.56
2023-02-03T20:31:28.061Z,77.56
2023-02-03T20:33:57.534Z,77.96
2023-02-03T20:36:25.372Z,77.83
2023-02-03T20:38:53.333Z,77.82
2023-02-03T20:41:21.332Z,77.55
2023-02-03T20:43:49.341Z,77.34
2023-02-03T20:46:20.076Z,77.26
2023-02-03T20:48:48.522Z,77.24
2023-02-03T20:51:21.107Z,77.03
2023-02-03T20:53:50.089Z,76.69
2023-02-03T20:56:21.471Z,77.24
2023-02-03T20:58:49.531Z,76.84
2023-02-03T21:01:19.918Z,76.60
2023-02-03T21:04:05.919Z,77.00
2023-02-03T21:06:36.158Z,76.73
2023-02-03T21:09:13.538Z,76.77
2023-02-03T21:11:41.895Z,76.62
2023-02-03T21:14:20.864Z,76.88
2023-02-03T21:16:49.037Z,76.79
2023-02-03T21:19:30.015Z,76.83
2023-02-03T21:22:00.424Z,77.09
2023-02-03T21:24:30.804Z,76.90
2023-02-03T21:27:00.249Z,77.01
2023-02-03T21:29:32.776Z,76.74
2023-02-03T21:32:01.147Z,76.71
2023-02-03T21:34:31.260Z,76.55
2023-02-03T21:37:09.341Z,76.75
2023-02-03T21:39:37.492Z,76.54
2023-02-03T21:42:41.225Z,76.48
2023-02-03T21:45:28.393Z,76.40
2023-02-03T21:47:59.317Z,76.45
2023-02-03T21:50:32.219Z,76.75
2023-02-03T21:53:22.803Z,76.65
2023-02-03T21:55:50.707Z,76.26
2023-02-03T21:58:24.006Z,76.61
2023-02-03T22:00:53.444Z,76.33
2023-02-03T22:03:27.510Z,76.70
2023-02-03T22:06:06.032Z,76.44
2023-02-03T22:08:39.185Z,76.66
2023-02-03T22:11:07.023Z,76.76
2023-02-03T22:13:35.711Z,76.34
2023-02-03T22:16:04.091Z,76.81
2023-02-03T22:18:31.943Z,76.72
2023-02-03T22:20:59.858Z,76.66
2023-02-03T22:23:27.891Z,76.63
2023-02-03T22:25:57.091Z,76.96
2023-02-03T22:28:25.000Z,77.53
2023-02-03T22:30:53.033Z,77.48
2023-02-03T22:33:21.038Z,77.76
2023-02-03T22:35:49.004Z,77.36
2023-02-03T22:38:16.986Z,77.67
2023-02-03T22:40:44.846Z,77.90
2023-02-03T22:43:14.218Z,77.61
2023-02-03T22:45:42.262Z,78.08
2023-02-03T22:48:10.138Z,78.07
2023-02-03T22:50:38.441Z,77.96
2023-02-03T22:53:08.288Z,77.82
2023-02-03T22:55:37.893Z,77.95
2023-02-03T22:58:06.695Z,77.88
2023-02-03T23:00:36.408Z,78.40
2023-02-03T23:03:06.138Z,78.02
2023-02-03T23:05:34.184Z,78.09
2023-02-03T23:08:02.086Z,77.99
2023-02-03T23:10:32.037Z,78.26
2023-02-03T23:13:01.669Z,78.32
2023-02-03T23:15:30.214Z,78.69
2023-02-03T23:17:59.533Z,78.85
2023-02-03T23:20:27.398Z,78.66
2023-02-03T23:22:55.529Z,78.88
2023-02-03T23:25:23.439Z,78.65
2023-02-03T23:27:51.384Z,79.13
2023-02-03T23:30:19.836Z,78.91
2023-02-03T23:32:47.716Z,79.07
2023-02-03T23:35:34.522Z,79.02
2023-02-03T23:38:02.484Z,78.94
2023-02-03T23:40:30.611Z,79.31
2023-02-03T23:42:58.798Z,79.72
2023-02-03T23:45:26.759Z,79.74
2023-02-03T23:47:54.645Z,79.12
2023-02-03T23:50:24.058Z,79.06
2023-02-03T23:52:51.942Z,79.23
2023-02-03T23:55:21.877Z,78.98
2023-02-03T23:57:49.929Z,78.90
